Main page
METAR-TAF:

METAR-TAF

Airports :

Aberdeen Airport

Aberdeen, Scotland

latitude: 57-12N, longitude: 002-13W, elevation: 65 m

Current weather observation

The report was made 29 minutes ago, at 21:20 UTC
Wind 2 kt from variable directions
Temperature 6°C
Humidity 93%
Pressure 1029 hPa
Visibility 10 km or more

METAR: EGPD 222120Z AUTO VRB02KT 9999 NCD 06/05 Q1029 NOSIG

Time: 21:49 (21:49 UTC)

Forecast

The report was made 4 hours and 52 minutes ago, at 16:57 UTC
Forecast valid from 22 at 18 UTC to 23 at 18 UTC
Wind 5 kt from the South/Southwest
Visibility 10 km or more
Few clouds at a height of 3400 ft
Probability 30% :
Temporary
from 22 at 21 UTC to 23 at 09 UTC
Visibility: 7000 m

TAF: EGPD 221657Z 2218/2318 20005KT 9999 FEW034 PROB30 TEMPO 2221/2309 7000

Weather observations and forecasts of more than 4000 airports (METAR and TAF reports).

The available stations are represented by yellow and red dots on the map.

Hover mouse over dot to see the name of the station.

Then click to see weather observations and forecasts.

To change the map : click on the green buttons with a black cross to zoom in, on the green button with a dash to zoom out, or on the green arrows for adjacent maps.


METAR-TAF: